Arden, New York
Current Conditions -  °F | °C
As of 2:45 PM on Thursday 23 Oct 2014 (Local Time) from KSWF Reporting Station
Broken Clouds Broken Clouds  
Wind Chill: 50°   Ceiling: 1500
Heat Index: 50°   Visibility: 7mi
Dew Point: 48°   Wind: 12mph
Humidity: 94%   Direction: 20°NNE
Pressure: 29.74"   Gusts: 23mph
Location:  41.27°N, 74.15°W
Report Text: KSWF 231845Z 02010G20KT 7SM BKN015 BKN030 10/09 A2974
Loading
Personal Weather Stations






























Interactive Weather Map
Tropical Storm Tracking
New forecast layout! Learn more

10-Day Weather Forecast

Advertisements
Track Severe Weather on mobile